Flight Track Log - Related Links

Times and Time Zones

All times are in EDT time to prevent confusion due to time zone crossing. See the UAL3740 flight status page for this flight to view local times or setup timezone preferences in your user account.

Time Position Orientation Groundspeed Altitude Reporting Facility
EDT Latitude Longitude Course Direction KTS MPH feet Rate Location/Type
Thu 07:32:08 AM 38.9500 -77.5000 333° Northwest 169 194 1,600  Level Potomac TRACON
Thu 07:33:08 AM 39.0000 -77.5333 333° Northwest 235 270 3,800 2,600 Climbing Potomac TRACON
Thu 07:34:08 AM 39.0667 -77.5500 349° North 280 322 6,800 3,050 Climbing Potomac TRACON
Thu 07:35:08 AM 39.1333 -77.4833 38° Northeast 274 315 9,900 1,650 Climbing Potomac TRACON
Thu 07:36:08 AM 39.1333 -77.3833 90° East 340 391 10,100 1,288 Climbing Potomac TRACON
Thu 07:38:33 AM 39.0456 -77.1097 112° Southeast 369 425 14,300 2,155 Climbing Washington Center
Thu 07:39:34 AM 39.0492 -76.9842 88° East 348 400 17,500 2,430 Climbing Washington Center
Thu 07:40:34 AM 39.0650 -76.8589 81° East 348 400 19,200 1,934 Climbing Washington Center
Thu 07:41:35 AM 39.0831 -76.7281 80° East 348 400 21,400 1,869 Climbing Washington Center
Thu 07:42:36 AM 39.0989 -76.5919 81° East 361 415 23,000 807 Climbing Washington Center
Thu 07:43:34 AM 39.1186 -76.4531 80° East 379 436 23,000  Level Washington Center
Thu 07:44:35 AM 39.1383 -76.3061 80° East 399 459 23,000  Level Washington Center
Thu 07:45:35 AM 39.1622 -76.1592 78° East 411 473 23,000 100 Level Washington Center
Thu 07:46:35 AM 39.2106 -76.0283 64° Northeast 406 467 23,200 992 Climbing Washington Center
Thu 07:47:36 AM 39.2819 -75.9106 52° Northeast 406 467 25,000 1,587 Climbing Washington Center
Thu 07:48:36 AM 39.3550 -75.7928 51° Northeast 412 474 26,400 1,436 Climbing Washington Center
Thu 07:49:33 AM 39.4303 -75.6775 50° Northeast 412 474 27,800 1,358 Climbing Washington Center
Thu 07:51:46 AM 39.5983 -75.4267 49° Northeast 446 513 30,700 1,237 Climbing New York Center
Thu 07:52:47 AM 39.6758 -75.3103 49° Northeast 435 501 31,800 1,050 Climbing New York Center
Thu 07:53:46 AM 39.7533 -75.1939 49° Northeast 435 501 32,800 605 Climbing New York Center
Thu 07:54:46 AM 39.8397 -75.0586 50° Northeast 435 501 33,000 99 Climbing New York Center
Thu 07:55:47 AM 39.9192 -74.9336 50° Northeast 435 501 33,000  Level New York Center
Thu 07:56:46 AM 39.9981 -74.8219 47° Northeast 435 501 33,000  Level New York Center
Thu 07:57:46 AM 40.0525 -74.6922 61° Northeast 423 487 33,000  Level New York Center
Thu 07:59:32 AM 40.1400 -74.4486 65° Northeast 409 471 33,000  Level Boston Center
Thu 08:00:32 AM 40.1903 -74.3144 64° Northeast 409 471 33,000 -300 Level Boston Center
Thu 08:01:32 AM 40.2428 -74.1744 64° Northeast 409 471 32,400 -1,150 Descending Boston Center
Thu 08:02:32 AM 40.2947 -74.0344 64° Northeast 420 483 30,700 -1,700 Descending Boston Center
Thu 08:03:32 AM 40.3300 -73.8992 71° East 414 476 29,000 -1,700 Descending Boston Center
Thu 08:04:32 AM 40.3547 -73.7472 78° East 408 470 27,300 -1,000 Descending Boston Center
Thu 08:05:32 AM 40.4042 -73.6064 65° Northeast 413 475 27,000 -250 Descending Boston Center
Thu 08:06:32 AM 40.4556 -73.4792 62° Northeast 408 470 26,800 -450 Descending Boston Center
Thu 08:07:32 AM 40.5086 -73.3489 62° Northeast 397 457 26,100 -1,045 Descending Boston Center
Thu 08:08:44 AM 40.5744 -73.1914 61° Northeast 397 457 24,500 -1,364 Descending Boston Center
Thu 08:09:44 AM 40.6189 -73.0661 65° Northeast 392 451 23,100 -1,400 Descending Boston Center
Thu 08:10:44 AM 40.6717 -72.9464 60° Northeast 380 437 21,700 -1,400 Descending Boston Center
Thu 08:11:44 AM 40.7181 -72.8261 63° Northeast 375 432 20,300 -1,400 Descending Boston Center
Thu 08:12:44 AM 40.7683 -72.7058 61° Northeast 370 426 18,900 -1,200 Descending Boston Center
Thu 08:13:44 AM 40.8019 -72.6072 66° East 365 420 17,900 -1,000 Descending Boston Center
Thu 08:14:44 AM 40.8583 -72.4703 61° Northeast 365 420 16,900 -1,200 Descending Boston Center
Thu 08:15:19 AM 40.8792 -72.4153 63° Northeast 357 411 16,000 -1,300 Descending Boston Center
Thu 08:15:44 AM 40.8978 -72.3686 62° Northeast 350 403 15,600 -1,164 Descending Boston Center
Thu 08:16:26 AM 40.9247 -72.3028 62° Northeast 351 404 14,700 -1,300 Descending Boston Center
Thu 08:16:44 AM 40.9394 -72.2506 70° East 350 403 14,300 -1,364 Descending Boston Center
Thu 08:17:32 AM 40.9725 -72.1569 65° Northeast 364 419 13,200 -1,321 Descending Boston Center
Thu 08:18:33 AM 41.0139 -72.0386 65° Northeast 357 411 11,900 -1,240 Descending Boston Center
Thu 08:19:33 AM 41.0508 -71.9281 66° East 345 397 10,700 -1,091 Descending Boston Center
Thu 08:20:34 AM 41.1047 -71.8422 50° Northeast 319 367 9,700 -1,426 Descending Boston Center
Thu 08:21:35 AM 41.1481 -71.7703 51° Northeast 267 307 7,800 -1,736 Descending Boston Center
Thu 08:22:35 AM 41.1933 -71.6981 50° Northeast 256 295 6,200 -1,388 Descending Boston Center
Thu 08:23:36 AM 41.2347 -71.6314 50° Northeast 240 276 5,000 -590 Descending Boston Center
Thu 08:24:37 AM 41.2778 -71.5644 49° Northeast 251 289 5,000  Level Boston Center
Thu 08:25:37 AM 41.3381 -71.5389 18° North 297 342 5,000  Level Boston Center
Thu 08:26:38 AM 41.4150 -71.5183 11° North 279 321 5,000  Level Boston Center
Thu 08:27:38 AM 41.4817 -71.4981 13° North 250 288 5,000  Level Boston Center
Thu 08:28:51 AM 41.5647 -71.4772 11° North 249 287 5,000  Level Boston Center
Thu 08:29:52 AM 41.6228 -71.4375 27° Northeast 243 280 5,000  Level Boston Center
Thu 08:30:46 AM 41.6683 -71.4064 27° Northeast 225 259 5,000 -496 Level Boston Center
Thu 08:31:53 AM 41.7075 -71.3694 35° Northeast 201 231 4,000 -851 Descending Boston Center
Thu 08:33:00 AM 41.7489 -71.3383 29° Northeast 171 197 3,100 -806 Descending Boston Center

Login

Don't have an account? Register now (free) for customized features, flight alerts, and more!